Time;durP1;ratioP1;P1;durP2;ratioP2;P2;SDS_P1;SDS_P2;PMS_P1;PMS_P2;Temp;Humidity;BMP_temperature;BMP_pressure;BME280_temperature;BME280_humidity;BME280_pressure;Samples;Min_cycle;Max_cycle;Signal;HPM_P1;HPM_P2
2020/12/07 00:01:05;;;;;;;16.53;12.20;;;;;;;3.39;87.29;98836.95;1737694;82;25610;-69
2020/12/07 00:03:32;;;;;;;15.17;11.70;;;;;;;3.36;87.03;98838.43;1698692;82;25323;-69
2020/12/07 00:05:59;;;;;;;15.67;11.73;;;;;;;3.34;86.95;98826.83;1681768;83;25192;-69
2020/12/07 00:08:25;;;;;;;16.63;12.57;;;;;;;3.32;87.01;98823.48;1681831;84;25180;-69
2020/12/07 00:10:52;;;;;;;15.40;11.33;;;;;;;3.28;87.19;98824.11;1631080;86;25798;-69
2020/12/07 00:13:19;;;;;;;15.60;11.90;;;;;;;3.23;87.59;98812.34;1655570;85;25551;-69
2020/12/07 00:15:45;;;;;;;16.90;12.57;;;;;;;3.22;87.54;98823.65;1655695;85;25153;-68
2020/12/07 00:18:12;;;;;;;17.43;12.53;;;;;;;3.21;87.51;98818.92;1655599;85;25223;-68
2020/12/07 00:20:39;;;;;;;14.67;10.60;;;;;;;3.19;87.48;98816.89;1655626;85;25129;-68
2020/12/07 00:23:06;;;;;;;14.63;10.57;;;;;;;3.20;87.56;98820.31;1681926;84;25125;-68
2020/12/07 00:25:33;;;;;;;15.40;11.20;;;;;;;3.18;87.55;98821.70;1655621;85;25318;-72
2020/12/07 00:28:00;;;;;;;15.37;11.53;;;;;;;3.19;87.48;98832.95;1655782;85;25136;-69
2020/12/07 00:30:27;;;;;;;15.20;11.87;;;;;;;3.17;87.46;98820.05;1668498;84;25620;-69
2020/12/07 00:32:53;;;;;;;14.27;10.80;;;;;;;3.16;87.44;98826.98;1662632;84;25603;-69
2020/12/07 00:35:20;;;;;;;16.20;12.30;;;;;;;3.16;87.63;98815.77;1662760;84;25122;-69
2020/12/07 00:37:47;;;;;;;17.30;12.53;;;;;;;3.16;87.48;98811.87;1662785;85;25177;-69
2020/12/07 00:40:14;;;;;;;14.67;10.73;;;;;;;3.18;87.64;98807.88;1662890;84;25281;-69
2020/12/07 00:42:41;;;;;;;15.07;11.07;;;;;;;3.11;87.61;98802.22;1662698;85;25389;-69
2020/12/07 00:45:10;;;;;;;13.40;9.87;;;;;;;3.09;87.95;98804.91;1662762;85;25130;-69
2020/12/07 00:47:37;;;;;;;14.20;11.17;;;;;;;3.11;87.50;98807.41;1662740;84;25260;-69
2020/12/07 00:50:04;;;;;;;15.17;10.80;;;;;;;3.12;87.84;98810.40;1662754;85;25256;-68
2020/12/07 00:52:31;;;;;;;15.67;11.97;;;;;;;3.09;87.99;98806.20;1662753;84;25296;-68
2020/12/07 00:54:58;;;;;;;14.10;10.87;;;;;;;3.08;87.85;98812.31;1689183;84;25169;-69
2020/12/07 00:57:25;;;;;;;15.33;12.03;;;;;;;3.08;87.92;98802.40;1662649;84;25699;-70
2020/12/07 00:59:52;;;;;;;13.20;10.43;;;;;;;3.09;87.90;98806.68;1662733;85;25250;-69
2020/12/07 01:02:19;;;;;;;12.77;10.00;;;;;;;3.09;87.71;98802.78;1662699;84;25165;-69
2020/12/07 01:04:46;;;;;;;12.67;9.83;;;;;;;3.08;87.78;98792.01;1662760;85;25323;-69
2020/12/07 01:07:14;;;;;;;12.77;10.57;;;;;;;3.07;87.91;98782.09;1662788;84;25182;-69
2020/12/07 01:09:42;;;;;;;13.90;10.43;;;;;;;3.06;87.83;98786.08;1662730;85;25722;-69
2020/12/07 01:12:10;;;;;;;13.20;10.37;;;;;;;3.06;87.82;98781.70;1662670;85;25244;-70
2020/12/07 01:14:49;;;;;;;13.80;10.93;;;;;;;3.10;87.83;98784.95;1852688;77;27432;-69
2020/12/07 01:17:15;;;;;;;15.10;12.13;;;;;;;3.01;87.93;98781.63;1788458;80;25754;-69
2020/12/07 01:19:43;;;;;;;16.13;10.93;;;;;;;2.97;88.28;98777.08;1788396;79;25260;-69
2020/12/07 01:22:12;;;;;;;15.43;11.73;;;;;;;2.96;88.34;98779.30;1755439;81;25663;-69
2020/12/07 01:24:39;;;;;;;16.87;13.13;;;;;;;2.94;88.15;98783.27;1788395;80;25604;-69
2020/12/07 01:27:07;;;;;;;14.43;11.30;;;;;;;2.93;88.36;98798.95;1755483;81;25433;-68
2020/12/07 01:29:34;;;;;;;15.50;13.03;;;;;;;2.90;88.60;98787.00;1788448;80;25268;-68
2020/12/07 01:32:01;;;;;;;15.83;12.93;;;;;;;2.92;88.47;98796.00;1755759;81;25284;-68
2020/12/07 01:34:28;;;;;;;16.73;13.07;;;;;;;2.91;88.46;98789.95;1788254;79;25688;-68
2020/12/07 01:36:55;;;;;;;15.07;10.73;;;;;;;2.92;88.42;98798.59;1755635;81;25266;-68
2020/12/07 01:39:22;;;;;;;13.83;10.63;;;;;;;2.91;88.58;98787.82;1788356;79;25280;-68
2020/12/07 01:41:50;;;;;;;17.27;13.23;;;;;;;2.91;88.41;98783.45;1755429;81;25719;-68
2020/12/07 01:44:18;;;;;;;17.73;13.23;;;;;;;2.88;88.86;98770.67;1788225;79;25141;-68
2020/12/07 01:46:45;;;;;;;16.70;13.90;;;;;;;2.87;88.71;98773.36;1755512;81;25225;-68
2020/12/07 01:49:12;;;;;;;15.10;12.17;;;;;;;2.85;88.76;98769.55;1788322;79;25676;-68
2020/12/07 01:51:39;;;;;;;15.10;12.93;;;;;;;2.85;88.65;98769.55;1731295;81;25297;-70
2020/12/07 01:54:08;;;;;;;16.07;12.20;;;;;;;2.83;88.79;98759.70;1756979;80;25182;-69
2020/12/07 01:56:38;;;;;;;18.07;14.20;;;;;;;2.81;88.85;98753.77;1695561;83;25298;-69
2020/12/07 01:59:06;;;;;;;18.63;15.00;;;;;;;2.78;89.32;98747.45;1756397;81;25337;-68
2020/12/07 02:01:38;;;;;;;15.93;14.07;;;;;;;2.79;89.18;98763.42;1724219;83;25291;-69
2020/12/07 02:04:05;;;;;;;16.07;13.87;;;;;;;2.79;89.13;98753.03;1757239;80;25262;-69
2020/12/07 02:06:32;;;;;;;17.50;14.50;;;;;;;2.77;89.23;98745.80;1725454;83;25305;-69
2020/12/07 02:09:00;;;;;;;15.97;14.13;;;;;;;2.77;89.16;98753.59;1748639;81;25334;-69
2020/12/07 02:11:28;;;;;;;15.87;13.13;;;;;;;2.72;89.09;98758.23;1726674;83;25781;-69
2020/12/07 02:13:55;;;;;;;16.60;14.63;;;;;;;2.73;89.27;98758.58;1699752;83;25762;-69
2020/12/07 02:16:24;;;;;;;17.57;12.53;;;;;;;2.74;89.25;98760.27;1726752;83;25303;-68
2020/12/07 02:18:57;;;;;;;13.80;11.53;;;;;;;2.71;89.38;98769.52;1726447;83;25719;-69
2020/12/07 02:21:24;;;;;;;16.27;13.27;;;;;;;2.68;89.52;98768.41;1726698;83;25676;-69
2020/12/07 02:24:01;;;;;;;16.53;13.33;;;;;;;2.71;89.57;98770.83;1889286;75;27446;-69
2020/12/07 02:26:30;;;;;;;16.77;13.30;;;;;;;2.65;89.33;98773.77;1860146;77;25739;-69
2020/12/07 02:28:58;;;;;;;19.17;15.97;;;;;;;2.63;89.78;98771.73;1860191;77;25250;-69
2020/12/07 02:31:26;;;;;;;17.43;14.40;;;;;;;2.67;89.58;98768.05;1858935;77;25336;-69
2020/12/07 02:33:54;;;;;;;19.63;15.53;;;;;;;2.65;89.67;98763.38;1860046;77;25347;-69
2020/12/07 02:36:21;;;;;;;16.43;13.47;;;;;;;2.64;89.62;98755.24;1848870;77;25267;-69
2020/12/07 02:38:49;;;;;;;15.10;13.03;;;;;;;2.60;89.78;98754.12;1845592;77;25249;-69
2020/12/07 02:41:18;;;;;;;17.23;13.80;;;;;;;2.59;89.69;98748.55;1853968;77;25610;-70
2020/12/07 02:43:44;;;;;;;14.97;13.00;;;;;;;2.60;89.72;98755.42;1826894;76;25266;-70
2020/12/07 02:46:13;;;;;;;14.27;10.77;;;;;;;2.63;89.79;98747.07;1857568;77;25622;-69
2020/12/07 02:48:40;;;;;;;14.97;11.70;;;;;;;2.57;90.02;98756.89;1857710;76;25614;-70
2020/12/07 02:51:08;;;;;;;15.33;11.60;;;;;;;2.56;89.95;98756.98;1853205;77;25130;-69
2020/12/07 02:53:36;;;;;;;12.37;9.90;;;;;;;2.56;89.93;98752.64;1850584;77;25261;-69
2020/12/07 02:56:04;;;;;;;12.87;10.07;;;;;;;2.57;90.12;98750.87;1850589;77;25256;-69
2020/12/07 02:58:32;;;;;;;13.30;10.37;;;;;;;2.55;89.97;98739.28;1849592;77;25114;-69
2020/12/07 03:00:59;;;;;;;15.57;10.63;;;;;;;2.53;90.38;98752.82;1850548;77;25169;-70
2020/12/07 03:03:27;;;;;;;14.10;10.93;;;;;;;2.56;90.28;98744.00;1856177;76;25113;-69
2020/12/07 03:05:54;;;;;;;13.13;10.67;;;;;;;2.53;89.99;98742.87;1802518;79;25157;-69
2020/12/07 03:08:21;;;;;;;13.00;9.83;;;;;;;2.52;90.27;98748.54;1826863;78;25219;-69
2020/12/07 03:10:50;;;;;;;14.53;10.63;;;;;;;2.49;90.20;98750.48;1802692;79;25208;-69
2020/12/07 03:13:17;;;;;;;11.07;9.87;;;;;;;2.47;90.47;98745.38;1827337;78;25211;-69
2020/12/07 03:15:46;;;;;;;13.13;10.10;;;;;;;2.48;90.20;98737.98;1800906;79;25244;-70
2020/12/07 03:18:14;;;;;;;13.30;9.67;;;;;;;2.49;90.06;98743.52;1802694;79;25632;-69
2020/12/07 03:20:51;;;;;;;12.47;9.90;;;;;;;2.54;90.19;98732.88;1818292;78;27441;-69
2020/12/07 03:23:18;;;;;;;13.80;11.17;;;;;;;2.47;90.37;98746.67;1789445;80;25261;-70
2020/12/07 03:25:44;;;;;;;13.63;10.03;;;;;;;2.46;90.31;98750.19;1789542;79;25218;-69
2020/12/07 03:28:12;;;;;;;12.33;9.90;;;;;;;2.46;90.29;98750.19;1789343;80;25269;-69
2020/12/07 03:30:39;;;;;;;14.37;11.20;;;;;;;2.47;90.32;98755.77;1789464;79;25217;-69
2020/12/07 03:33:06;;;;;;;12.67;10.20;;;;;;;2.45;90.32;98749.83;1789627;79;25320;-70
2020/12/07 03:35:35;;;;;;;14.13;11.27;;;;;;;2.45;90.35;98756.77;1789290;79;25233;-70
2020/12/07 03:38:03;;;;;;;14.20;10.70;;;;;;;2.45;90.18;98749.83;1789444;79;25296;-69
2020/12/07 03:40:34;;;;;;;14.90;11.00;;;;;;;2.45;90.29;98750.27;1789292;79;25217;-70
2020/12/07 03:43:03;;;;;;;15.53;11.40;;;;;;;2.45;90.44;98749.83;1789443;79;25257;-69
2020/12/07 03:45:31;;;;;;;13.13;11.03;;;;;;;2.45;90.41;98753.73;1789513;80;25285;-69
2020/12/07 03:47:59;;;;;;;13.70;10.43;;;;;;;2.46;90.21;98750.66;1789518;80;25268;-69
2020/12/07 03:50:27;;;;;;;13.77;11.10;;;;;;;2.43;90.53;98750.39;1774833;79;25263;-70
2020/12/07 03:52:54;;;;;;;13.70;10.67;;;;;;;2.45;90.38;98747.23;1784218;80;25296;-69
2020/12/07 03:55:23;;;;;;;11.70;9.50;;;;;;;2.44;90.41;98746.03;1783870;79;25265;-70
2020/12/07 03:57:50;;;;;;;12.37;9.60;;;;;;;2.45;90.32;98747.67;1739124;82;25228;-69
2020/12/07 04:00:17;;;;;;;12.10;9.07;;;;;;;2.43;90.35;98750.39;1739023;82;25656;-69
2020/12/07 04:02:48;;;;;;;11.87;9.83;;;;;;;2.43;90.20;98750.39;1709862;82;25674;-69
2020/12/07 04:05:23;;;;;;;11.63;9.70;;;;;;;2.40;90.14;98760.47;1738535;82;25277;-70
2020/12/07 04:07:47;;;;;;;12.83;10.37;;;;;;;2.40;90.09;98755.28;1738215;82;25367;-70
2020/12/07 04:10:14;;;;;;;11.30;8.70;;;;;;;2.40;90.10;98747.97;1738868;82;25289;-69
2020/12/07 04:12:41;;;;;;;12.03;8.73;;;;;;;2.39;90.31;98755.37;1710076;82;25305;-69
2020/12/07 04:15:08;;;;;;;15.17;10.27;;;;;;;2.38;90.25;98758.87;1739100;82;25163;-70
2020/12/07 04:17:34;;;;;;;12.20;9.90;;;;;;;2.36;90.12;98757.70;1738936;82;25251;-68
2020/12/07 04:20:01;;;;;;;12.33;9.77;;;;;;;2.35;90.28;98761.67;1710006;82;25521;-68
2020/12/07 04:22:28;;;;;;;12.43;9.67;;;;;;;2.34;90.11;98759.99;1709976;82;25633;-69
2020/12/07 04:24:55;;;;;;;13.50;10.33;;;;;;;2.34;90.06;98756.09;1739029;82;25285;-68
2020/12/07 04:27:22;;;;;;;15.40;10.43;;;;;;;2.32;90.09;98753.59;1739055;82;25238;-70
2020/12/07 04:29:48;;;;;;;12.53;10.00;;;;;;;2.33;90.01;98755.72;1739137;82;25096;-68
2020/12/07 04:32:15;;;;;;;12.47;9.90;;;;;;;2.32;89.99;98752.30;1738465;82;25763;-69
2020/12/07 04:34:42;;;;;;;10.90;9.43;;;;;;;2.33;89.91;98753.12;1738550;82;25309;-69
2020/12/07 04:37:08;;;;;;;10.13;8.03;;;;;;;2.32;89.92;98760.55;1738486;82;25387;-70
2020/12/07 04:39:35;;;;;;;12.77;9.50;;;;;;;2.30;89.99;98752.84;1738453;82;25297;-69
2020/12/07 04:42:03;;;;;;;12.90;9.70;;;;;;;2.29;89.92;98747.75;1738495;82;25098;-69
2020/12/07 04:44:29;;;;;;;10.03;7.73;;;;;;;2.29;89.89;98747.75;1738419;82;25116;-70
2020/12/07 04:46:59;;;;;;;11.13;8.17;;;;;;;2.28;89.94;98757.30;1738565;82;25277;-69
2020/12/07 04:49:30;;;;;;;11.63;9.60;;;;;;;2.26;90.10;98747.92;1738486;82;25297;-69
2020/12/07 04:51:57;;;;;;;14.70;10.43;;;;;;;2.27;89.81;98748.30;1738449;82;25281;-70
2020/12/07 04:54:25;;;;;;;11.07;8.83;;;;;;;2.25;89.95;98735.89;1738378;82;25550;-69
2020/12/07 04:56:57;;;;;;;11.97;9.23;;;;;;;2.25;89.92;98739.30;1738469;82;25229;-69
2020/12/07 04:59:24;;;;;;;9.27;7.70;;;;;;;2.25;89.80;98735.41;1738629;82;25336;-70
2020/12/07 05:01:51;;;;;;;11.33;9.00;;;;;;;2.22;90.07;98724.73;1738555;82;25274;-69
2020/12/07 05:04:18;;;;;;;12.63;9.93;;;;;;;2.23;89.97;98730.78;1738394;82;25716;-69
2020/12/07 05:06:57;;;;;;;11.03;8.67;;;;;;;2.21;89.80;98717.90;1709345;82;25431;-69
2020/12/07 05:09:25;;;;;;;10.60;8.00;;;;;;;2.22;89.74;98719.55;1738307;82;25680;-69
2020/12/07 05:11:54;;;;;;;12.07;8.83;;;;;;;2.22;89.80;98715.66;1738432;82;25725;-69
2020/12/07 05:14:21;;;;;;;10.83;7.80;;;;;;;2.18;90.20;98716.77;1738561;82;25080;-69
2020/12/07 05:16:49;;;;;;;11.70;8.97;;;;;;;2.18;90.07;98716.77;1738504;82;25285;-69
2020/12/07 05:19:24;;;;;;;10.50;8.83;;;;;;;2.18;89.99;98719.84;1738380;82;25753;-68
2020/12/07 05:21:50;;;;;;;12.33;8.40;;;;;;;2.18;89.87;98730.22;1711988;82;25708;-69
2020/12/07 05:24:17;;;;;;;10.27;8.47;;;;;;;2.19;89.93;98722.78;1741408;82;25776;-69
2020/12/07 05:26:45;;;;;;;10.57;8.70;;;;;;;2.19;90.07;98727.97;1712030;83;25187;-69
2020/12/07 05:29:17;;;;;;;10.90;8.83;;;;;;;2.22;89.86;98736.41;1741376;82;25219;-69
2020/12/07 05:31:41;;;;;;;9.40;8.00;;;;;;;2.25;89.95;98730.23;1711491;82;25644;-69
2020/12/07 05:34:07;;;;;;;10.37;7.93;;;;;;;2.26;90.03;98730.58;1690590;82;25317;-69
2020/12/07 05:36:34;;;;;;;10.27;8.37;;;;;;;2.25;90.08;98715.95;1711982;83;25313;-69
2020/12/07 05:39:05;;;;;;;11.33;8.60;;;;;;;2.28;89.95;98723.56;1741233;82;25384;-69
2020/12/07 05:41:33;;;;;;;9.93;8.00;;;;;;;2.32;89.91;98727.64;1711738;83;25082;-69
2020/12/07 05:43:59;;;;;;;10.37;8.10;;;;;;;2.37;89.80;98735.16;1741228;82;25634;-68
2020/12/07 05:46:27;;;;;;;11.97;9.77;;;;;;;2.39;89.69;98735.91;1711998;83;25281;-69
2020/12/07 05:48:56;;;;;;;9.63;7.37;;;;;;;2.39;89.59;98739.33;1741427;82;25748;-69
2020/12/07 05:51:25;;;;;;;10.40;8.50;;;;;;;2.42;89.66;98738.33;1712024;82;25285;-68
2020/12/07 05:53:54;;;;;;;10.73;8.33;;;;;;;2.45;89.57;98738.16;1711865;83;25570;-69
2020/12/07 05:56:21;;;;;;;10.30;8.37;;;;;;;2.48;89.42;98743.17;1713501;82;25297;-69
2020/12/07 05:59:02;;;;;;;10.20;7.70;;;;;;;2.52;89.40;98743.82;1711871;83;25313;-69
2020/12/07 06:01:30;;;;;;;8.90;8.00;;;;;;;2.52;89.28;98736.86;1741353;82;25292;-69
2020/12/07 06:03:57;;;;;;;10.10;9.07;;;;;;;2.54;89.17;98736.77;1711974;83;25286;-69
2020/12/07 06:06:33;;;;;;;10.40;9.17;;;;;;;2.57;89.14;98741.79;1741244;82;25769;-69
2020/12/07 06:09:07;;;;;;;11.90;8.13;;;;;;;2.55;89.06;98739.28;1711754;82;25234;-69
2020/12/07 06:11:42;;;;;;;13.20;10.97;;;;;;;2.57;89.11;98749.10;1681508;84;25758;-69
2020/12/07 06:14:09;;;;;;;12.83;10.93;;;;;;;2.59;88.98;98758.10;1681727;85;25329;-68
2020/12/07 06:16:42;;;;;;;12.87;11.10;;;;;;;2.62;88.91;98767.02;1665808;85;25300;-68
2020/12/07 06:19:16;;;;;;;13.53;11.00;;;;;;;2.63;88.87;98753.56;1685295;83;25850;-69
2020/12/07 06:21:55;;;;;;;11.23;9.00;;;;;;;2.65;88.79;98773.77;1694645;84;25246;-70
2020/12/07 06:24:22;;;;;;;13.90;11.50;;;;;;;2.67;88.80;98777.96;1736653;82;25383;-70
2020/12/07 06:27:02;;;;;;;14.40;11.13;;;;;;;2.70;88.70;98788.61;1739381;82;25225;-69
2020/12/07 06:29:30;;;;;;;15.23;10.80;;;;;;;2.70;88.63;98792.51;1739198;81;25624;-69
2020/12/07 06:31:58;;;;;;;13.63;10.87;;;;;;;2.71;88.60;98789.00;1739122;81;25688;-69
2020/12/07 06:34:37;;;;;;;14.70;10.90;;;;;;;2.73;88.59;98791.03;1739381;80;25355;-69
2020/12/07 06:37:10;;;;;;;12.77;10.23;;;;;;;2.74;88.49;98797.91;1752480;80;25307;-68
2020/12/07 06:39:45;;;;;;;11.80;10.00;;;;;;;2.74;88.41;98805.70;1752064;80;25308;-69
2020/12/07 06:42:15;;;;;;;12.17;10.33;;;;;;;2.76;88.34;98803.84;1774703;80;25593;-69
2020/12/07 06:44:44;;;;;;;13.03;10.40;;;;;;;2.77;88.42;98808.12;1757187;80;25300;-69
2020/12/07 06:47:22;;;;;;;13.13;10.10;;;;;;;2.77;88.34;98812.84;1783243;79;25392;-69
2020/12/07 06:49:59;;;;;;;12.00;9.90;;;;;;;2.79;88.29;98807.09;1783391;80;25225;-70
2020/12/07 06:52:29;;;;;;;12.73;9.87;;;;;;;2.82;88.26;98802.20;1783234;79;25248;-69
2020/12/07 06:55:09;;;;;;;13.50;9.93;;;;;;;2.85;88.17;98802.02;1783394;79;25309;-69
2020/12/07 06:57:47;;;;;;;12.40;10.07;;;;;;;2.87;88.15;98811.02;1783581;79;25340;-68
2020/12/07 07:00:23;;;;;;;14.10;10.03;;;;;;;2.87;88.15;98810.55;1783470;79;25396;-68
2020/12/07 07:02:55;;;;;;;12.37;9.47;;;;;;;2.89;88.05;98820.37;1781737;79;25665;-69
2020/12/07 07:05:27;;;;;;;15.67;10.13;;;;;;;2.91;88.00;98815.92;1752470;81;25289;-68
2020/12/07 07:07:54;;;;;;;12.23;9.57;;;;;;;2.95;87.92;98817.91;1752479;80;25676;-69
2020/12/07 07:10:21;;;;;;;9.37;7.93;;;;;;;2.97;87.90;98814.27;1752433;80;25213;-69
2020/12/07 07:12:49;;;;;;;13.30;8.90;;;;;;;2.99;87.74;98817.25;1752283;80;25102;-69
2020/12/07 07:15:16;;;;;;;9.60;7.47;;;;;;;3.03;87.73;98810.94;1714900;82;25336;-70
2020/12/07 07:17:46;;;;;;;11.00;8.87;;;;;;;3.04;87.66;98813.91;1680759;82;25735;-69
2020/12/07 07:20:18;;;;;;;9.90;8.17;;;;;;;3.12;87.65;98809.10;1708960;82;25340;-69
2020/12/07 07:25:49;;;;;;;13.03;9.43;;;;;;;3.23;87.30;98798.87;1818270;78;27522;-69
2020/12/07 07:28:08;;;;;;;13.07;9.40;;;;;;;3.24;87.27;98814.84;1764117;80;25382;-69
2020/12/07 07:30:36;;;;;;;9.97;8.50;;;;;;;3.30;87.24;98817.08;1732339;80;25301;-69
2020/12/07 07:33:03;;;;;;;11.37;8.93;;;;;;;3.40;87.08;98827.73;1761193;81;25311;-70
2020/12/07 07:35:32;;;;;;;10.80;8.27;;;;;;;3.41;86.68;98828.59;1761164;81;25145;-69
2020/12/07 07:37:59;;;;;;;12.33;9.30;;;;;;;3.42;86.68;98829.80;1761297;81;25219;-70
2020/12/07 07:40:28;;;;;;;12.10;9.20;;;;;;;3.44;86.56;98835.73;1788896;80;25632;-69
2020/12/07 07:43:01;;;;;;;12.80;8.57;;;;;;;3.48;86.38;98833.30;1788979;80;25364;-69
2020/12/07 07:45:34;;;;;;;11.00;8.10;;;;;;;3.49;86.34;98825.88;1757745;80;25229;-69
2020/12/07 07:54:29;;;;;;;10.13;8.07;;;;;;;3.61;85.80;98824.77;1757130;80;25275;-69
2020/12/07 08:08:17;;;;;;;10.37;8.23;;;;;;;3.59;84.95;98823.56;1757303;81;25318;-69
2020/12/07 08:18:01;;;;;;;11.90;8.83;;;;;;;3.47;85.02;98838.59;1757195;80;25171;-70
2020/12/07 08:20:31;;;;;;;11.07;8.60;;;;;;;3.46;85.08;98841.67;1757219;80;25325;-69
2020/12/07 08:23:03;;;;;;;13.67;9.37;;;;;;;3.48;85.02;98832.48;1756854;80;25622;-70
2020/12/07 08:25:45;;;;;;;11.63;8.87;;;;;;;3.46;85.02;98833.87;1727442;81;25744;-70
2020/12/07 08:28:38;;;;;;;10.90;8.00;;;;;;;3.44;85.04;98844.01;1757145;81;25808;-70
2020/12/07 08:31:18;;;;;;;11.63;8.37;;;;;;;3.42;85.07;98840.64;1757196;81;25210;-69
2020/12/07 08:34:12;;;;;;;11.87;8.90;;;;;;;3.45;85.06;98848.25;1757044;80;25347;-69
2020/12/07 08:36:37;;;;;;;10.63;8.57;;;;;;;3.47;85.04;98843.34;1756835;81;25764;-69
2020/12/07 08:39:05;;;;;;;9.23;6.70;;;;;;;3.55;85.12;98838.14;1757094;80;25625;-70
2020/12/07 08:41:33;;;;;;;10.03;8.23;;;;;;;3.62;84.80;98840.28;1757140;80;25144;-70
2020/12/07 08:44:03;;;;;;;11.60;8.20;;;;;;;3.68;84.67;98837.75;1757107;80;25277;-70
2020/12/07 08:46:32;;;;;;;10.27;7.47;;;;;;;3.73;84.67;98845.28;1757199;81;25701;-69
2020/12/07 08:49:00;;;;;;;10.47;8.20;;;;;;;3.81;84.57;98853.45;1757390;80;25768;-70
2020/12/07 08:51:30;;;;;;;10.80;9.40;;;;;;;3.83;84.44;98852.40;1762640;81;25076;-70
2020/12/07 08:54:00;;;;;;;9.83;8.40;;;;;;;3.92;84.29;98852.29;1762701;80;25728;-70
2020/12/07 08:56:27;;;;;;;10.03;8.47;;;;;;;3.96;84.32;98857.69;1762800;80;25258;-70
2020/12/07 08:58:54;;;;;;;10.50;8.53;;;;;;;4.06;84.14;98865.75;1762793;81;25330;-71
2020/12/07 09:01:21;;;;;;;10.20;7.70;;;;;;;4.08;83.97;98864.70;1762466;80;25297;-70
2020/12/07 09:03:48;;;;;;;10.27;8.00;;;;;;;4.15;83.67;98869.54;1762223;81;25163;-70
2020/12/07 09:06:15;;;;;;;9.10;7.23;;;;;;;4.17;83.81;98870.27;1762198;80;25238;-70
2020/12/07 09:08:44;;;;;;;10.97;8.30;;;;;;;4.22;83.50;98868.20;1762243;80;25712;-70
2020/12/07 09:11:15;;;;;;;11.10;9.17;;;;;;;4.28;83.64;98876.46;1762232;80;25249;-70
2020/12/07 09:13:42;;;;;;;10.37;8.23;;;;;;;4.35;83.82;98879.51;1762294;80;25321;-70
2020/12/07 09:16:10;;;;;;;11.63;9.47;;;;;;;4.43;83.21;98877.25;1762088;81;25716;-70
2020/12/07 09:18:37;;;;;;;11.90;8.73;;;;;;;4.51;83.22;98880.68;1762316;80;25201;-70
2020/12/07 09:21:05;;;;;;;11.43;9.37;;;;;;;4.66;82.84;98880.16;1762289;80;25270;-69
2020/12/07 09:23:33;;;;;;;9.90;8.53;;;;;;;4.76;82.76;98883.83;1762196;81;25257;-70
2020/12/07 09:26:03;;;;;;;12.00;9.77;;;;;;;4.87;82.70;98879.67;1762358;80;25080;-70
2020/12/07 09:28:30;;;;;;;11.37;9.20;;;;;;;4.97;82.72;98877.64;1762075;80;25230;-71
2020/12/07 09:30:57;;;;;;;9.80;8.33;;;;;;;5.02;81.82;98876.05;1762237;80;25064;-70
2020/12/07 09:33:24;;;;;;;12.97;9.30;;;;;;;5.08;81.55;98881.30;1762428;81;25204;-70
2020/12/07 09:35:51;;;;;;;11.80;9.63;;;;;;;5.02;81.63;98876.87;1762287;80;25777;-69
2020/12/07 09:38:18;;;;;;;12.27;9.83;;;;;;;5.06;81.78;98869.70;1761502;80;25240;-70
2020/12/07 09:40:45;;;;;;;12.70;9.83;;;;;;;5.04;81.23;98867.65;1745597;81;25362;-68
2020/12/07 09:43:13;;;;;;;11.60;9.33;;;;;;;5.09;81.80;98870.78;1760712;81;25260;-70
2020/12/07 09:45:40;;;;;;;11.57;9.53;;;;;;;5.15;80.98;98872.98;1760676;81;25291;-70
2020/12/07 09:48:07;;;;;;;12.10;9.57;;;;;;;5.17;81.30;98869.80;1745559;81;25346;-70
2020/12/07 09:50:34;;;;;;;10.70;8.67;;;;;;;5.19;80.71;98861.42;1760411;81;25648;-70
2020/12/07 09:53:01;;;;;;;9.13;7.40;;;;;;;5.26;81.14;98861.84;1760540;81;25280;-69
2020/12/07 09:55:29;;;;;;;12.27;9.07;;;;;;;5.28;80.29;98855.20;1732908;81;25710;-69
2020/12/07 09:57:56;;;;;;;12.20;9.10;;;;;;;5.37;80.92;98856.71;1760548;81;25323;-69
2020/12/07 10:00:23;;;;;;;10.37;8.83;;;;;;;5.44;80.87;98864.95;1760665;81;25233;-69
2020/12/07 10:02:50;;;;;;;12.87;8.73;;;;;;;5.49;80.40;98862.86;1760704;81;25316;-70
2020/12/07 10:05:17;;;;;;;9.43;6.97;;;;;;;5.50;79.92;98861.93;1760560;81;25402;-70
2020/12/07 10:07:44;;;;;;;11.13;8.80;;;;;;;5.52;80.10;98863.95;1760568;81;25262;-70
2020/12/07 10:10:11;;;;;;;15.13;11.57;;;;;;;5.51;80.05;98868.83;1751021;80;25261;-71
2020/12/07 10:12:40;;;;;;;10.73;8.80;;;;;;;5.51;79.77;98872.73;1749695;80;25604;-69
2020/12/07 10:15:07;;;;;;;12.00;9.00;;;;;;;5.47;79.43;98872.57;1749649;80;25220;-70
2020/12/07 10:17:35;;;;;;;11.40;8.03;;;;;;;5.45;79.78;98867.11;1749413;80;25212;-71
2020/12/07 10:20:04;;;;;;;11.33;8.20;;;;;;;5.41;79.86;98863.85;1749553;80;25632;-71
2020/12/07 10:22:32;;;;;;;8.67;6.93;;;;;;;5.42;79.98;98862.92;1749123;80;25237;-70
2020/12/07 10:24:59;;;;;;;12.20;9.57;;;;;;;5.43;79.94;98865.05;1749613;80;25336;-71
2020/12/07 10:27:25;;;;;;;13.33;9.80;;;;;;;5.39;79.98;98869.17;1749633;80;25607;-70
2020/12/07 10:29:52;;;;;;;13.47;9.07;;;;;;;5.40;79.81;98860.90;1749469;80;25864;-71
2020/12/07 10:32:20;;;;;;;12.00;9.40;;;;;;;5.45;80.00;98861.89;1719698;80;25700;-70
2020/12/07 10:34:47;;;;;;;10.90;8.93;;;;;;;5.48;80.00;98858.60;1755914;80;25343;-68
2020/12/07 10:37:15;;;;;;;13.37;9.07;;;;;;;5.52;79.92;98843.56;1788141;79;25664;-69
2020/12/07 10:39:42;;;;;;;12.50;8.90;;;;;;;5.55;79.75;98846.80;1788192;79;25704;-70
2020/12/07 10:42:09;;;;;;;10.27;8.27;;;;;;;5.59;79.81;98859.15;1788134;79;25340;-69
2020/12/07 10:44:36;;;;;;;12.53;9.20;;;;;;;5.64;79.71;98856.23;1788115;79;25230;-69
2020/12/07 10:47:04;;;;;;;10.43;8.10;;;;;;;5.70;79.81;98859.73;1759831;80;25510;-70
2020/12/07 10:49:31;;;;;;;12.13;9.90;;;;;;;5.70;79.07;98854.03;1788222;79;25305;-70
2020/12/07 10:51:59;;;;;;;13.57;11.63;;;;;;;5.82;79.28;98855.42;1791270;79;25324;-71
2020/12/07 10:54:26;;;;;;;14.70;11.33;;;;;;;5.81;79.13;98853.27;1791489;79;25186;-70
2020/12/07 10:56:53;;;;;;;16.87;12.80;;;;;;;5.86;79.03;98855.08;1764921;79;25187;-71
2020/12/07 10:59:22;;;;;;;14.33;11.30;;;;;;;5.94;79.11;98846.23;1764501;80;25344;-71
2020/12/07 11:01:54;;;;;;;14.80;12.73;;;;;;;5.99;79.08;98851.65;1791430;80;25328;-71
2020/12/07 11:04:21;;;;;;;15.90;11.23;;;;;;;6.02;79.02;98843.60;1790829;79;25735;-70
2020/12/07 11:06:51;;;;;;;13.23;10.73;;;;;;;6.12;79.16;98844.61;1766897;80;25732;-70
2020/12/07 11:09:23;;;;;;;15.10;11.87;;;;;;;6.22;79.08;98852.14;1765001;80;25348;-70
2020/12/07 11:11:46;;;;;;;14.67;12.03;;;;;;;6.29;78.67;98852.53;1790449;79;25230;-69
2020/12/07 11:14:13;;;;;;;13.90;10.87;;;;;;;6.36;78.51;98847.70;1791177;79;25265;-70
2020/12/07 11:16:40;;;;;;;14.53;11.17;;;;;;;6.39;78.52;98857.92;1791129;80;25664;-70
2020/12/07 11:19:07;;;;;;;13.40;9.90;;;;;;;6.48;78.04;98855.94;1791151;80;25249;-70
2020/12/07 11:21:34;;;;;;;14.73;10.33;;;;;;;6.54;78.23;98853.37;1791355;79;25209;-69
2020/12/07 11:24:02;;;;;;;13.37;9.70;;;;;;;6.62;77.96;98857.53;1791352;79;25289;-69
2020/12/07 11:26:33;;;;;;;11.80;10.30;;;;;;;6.68;78.24;98855.30;1791495;79;25261;-70
2020/12/07 11:29:00;;;;;;;13.67;10.20;;;;;;;6.80;78.23;98856.65;1764680;80;25728;-71
2020/12/07 11:31:27;;;;;;;19.53;13.43;;;;;;;6.85;78.09;98855.83;1791100;80;25811;-70
2020/12/07 11:33:55;;;;;;;15.20;11.07;;;;;;;6.91;77.08;98855.87;1791399;80;25206;-74
2020/12/07 11:36:23;;;;;;;11.90;9.33;;;;;;;6.84;76.90;98847.66;1791427;79;25166;-70
2020/12/07 11:39:07;;;;;;;11.97;10.03;;;;;;;6.79;76.69;98842.77;1791408;79;25361;-69
2020/12/07 11:41:37;;;;;;;11.30;8.83;;;;;;;6.85;77.32;98837.09;1788280;79;25755;-73
2020/12/07 11:44:12;;;;;;;10.83;8.53;;;;;;;6.87;77.32;98849.56;1789063;80;25209;-70
2020/12/07 11:46:46;;;;;;;14.03;8.13;;;;;;;6.91;77.16;98838.39;1791321;79;25281;-70
2020/12/07 11:49:11;;;;;;;10.87;8.73;;;;;;;6.94;77.36;98842.09;1790912;79;25293;-69
2020/12/07 11:51:39;;;;;;;10.17;8.60;;;;;;;6.95;77.26;98842.43;1791355;80;25210;-70
2020/12/07 11:54:06;;;;;;;12.10;8.90;;;;;;;6.95;77.16;98844.22;1764840;80;25113;-70
2020/12/07 11:56:36;;;;;;;11.70;8.60;;;;;;;6.95;76.82;98837.20;1791065;79;25285;-70
2020/12/07 11:59:09;;;;;;;11.20;8.77;;;;;;;6.92;77.00;98824.39;1791117;80;25292;-70
2020/12/07 12:01:37;;;;;;;10.73;7.80;;;;;;;6.94;77.05;98820.32;1764783;80;25071;-70
2020/12/07 12:04:04;;;;;;;12.03;8.67;;;;;;;6.89;77.14;98812.85;1791254;79;25545;-69